sensor_id;sensor_type;location;lat;lon;timestamp;P1;durP1;ratioP1;P2;durP2;ratioP2
46653;SDS011;38960;51.074;17.004;2022-10-16T00:01:12;6.72;;;5.45;;
46653;SDS011;38960;51.074;17.004;2022-10-16T00:03:39;7.97;;;6.03;;
46653;SDS011;38960;51.074;17.004;2022-10-16T00:06:05;7.85;;;5.75;;
46653;SDS011;38960;51.074;17.004;2022-10-16T00:08:31;6.93;;;5.72;;
46653;SDS011;38960;51.074;17.004;2022-10-16T00:11:31;12.18;;;6.00;;
46653;SDS011;38960;51.074;17.004;2022-10-16T00:13:55;7.63;;;5.80;;
46653;SDS011;38960;51.074;17.004;2022-10-16T00:16:22;6.18;;;5.53;;
46653;SDS011;38960;51.074;17.004;2022-10-16T00:18:48;12.13;;;6.47;;
46653;SDS011;38960;51.074;17.004;2022-10-16T00:21:15;9.95;;;6.10;;
46653;SDS011;38960;51.074;17.004;2022-10-16T00:23:43;10.32;;;6.20;;
46653;SDS011;38960;51.074;17.004;2022-10-16T00:26:10;7.63;;;5.95;;
46653;SDS011;38960;51.074;17.004;2022-10-16T00:28:38;6.70;;;5.60;;
46653;SDS011;38960;51.074;17.004;2022-10-16T00:31:10;8.82;;;6.05;;
46653;SDS011;38960;51.074;17.004;2022-10-16T00:33:36;8.07;;;6.10;;
46653;SDS011;38960;51.074;17.004;2022-10-16T00:36:03;10.98;;;6.10;;
46653;SDS011;38960;51.074;17.004;2022-10-16T00:38:29;8.07;;;6.50;;
46653;SDS011;38960;51.074;17.004;2022-10-16T00:40:55;7.75;;;5.95;;
46653;SDS011;38960;51.074;17.004;2022-10-16T00:43:38;7.18;;;5.68;;
46653;SDS011;38960;51.074;17.004;2022-10-16T00:46:07;9.10;;;6.32;;
46653;SDS011;38960;51.074;17.004;2022-10-16T00:48:36;9.70;;;5.95;;
46653;SDS011;38960;51.074;17.004;2022-10-16T00:51:02;10.65;;;6.47;;
46653;SDS011;38960;51.074;17.004;2022-10-16T00:53:27;7.40;;;6.43;;
46653;SDS011;38960;51.074;17.004;2022-10-16T00:55:53;7.60;;;5.50;;
46653;SDS011;38960;51.074;17.004;2022-10-16T00:58:19;9.07;;;6.53;;
46653;SDS011;38960;51.074;17.004;2022-10-16T01:00:45;11.40;;;6.15;;
46653;SDS011;38960;51.074;17.004;2022-10-16T01:06:25;9.23;;;6.43;;
46653;SDS011;38960;51.074;17.004;2022-10-16T01:11:48;10.68;;;6.63;;
46653;SDS011;38960;51.074;17.004;2022-10-16T01:14:19;7.70;;;6.35;;
46653;SDS011;38960;51.074;17.004;2022-10-16T01:16:53;12.55;;;6.05;;
46653;SDS011;38960;51.074;17.004;2022-10-16T01:19:31;8.23;;;6.15;;
46653;SDS011;38960;51.074;17.004;2022-10-16T01:22:14;10.43;;;6.00;;
46653;SDS011;38960;51.074;17.004;2022-10-16T01:24:41;7.88;;;5.97;;
46653;SDS011;38960;51.074;17.004;2022-10-16T01:27:23;9.60;;;5.32;;
46653;SDS011;38960;51.074;17.004;2022-10-16T01:30:10;7.30;;;5.97;;
46653;SDS011;38960;51.074;17.004;2022-10-16T01:32:41;11.88;;;6.28;;
46653;SDS011;38960;51.074;17.004;2022-10-16T01:35:11;13.00;;;6.43;;
46653;SDS011;38960;51.074;17.004;2022-10-16T01:37:43;7.00;;;5.13;;
46653;SDS011;38960;51.074;17.004;2022-10-16T01:40:14;8.32;;;5.03;;
46653;SDS011;38960;51.074;17.004;2022-10-16T01:42:42;10.57;;;5.22;;
46653;SDS011;38960;51.074;17.004;2022-10-16T01:45:14;8.10;;;5.30;;
46653;SDS011;38960;51.074;17.004;2022-10-16T01:47:43;9.48;;;6.78;;
46653;SDS011;38960;51.074;17.004;2022-10-16T01:50:09;8.00;;;6.15;;
46653;SDS011;38960;51.074;17.004;2022-10-16T01:52:36;7.78;;;6.35;;
46653;SDS011;38960;51.074;17.004;2022-10-16T01:55:04;9.55;;;5.85;;
46653;SDS011;38960;51.074;17.004;2022-10-16T01:57:32;6.97;;;5.50;;
46653;SDS011;38960;51.074;17.004;2022-10-16T02:00:03;7.53;;;6.05;;
46653;SDS011;38960;51.074;17.004;2022-10-16T02:02:37;6.63;;;5.75;;
46653;SDS011;38960;51.074;17.004;2022-10-16T02:05:09;9.65;;;5.68;;
46653;SDS011;38960;51.074;17.004;2022-10-16T02:07:40;9.45;;;5.82;;
46653;SDS011;38960;51.074;17.004;2022-10-16T02:10:07;10.00;;;6.20;;
46653;SDS011;38960;51.074;17.004;2022-10-16T02:12:33;7.03;;;5.60;;
46653;SDS011;38960;51.074;17.004;2022-10-16T02:15:02;9.25;;;6.38;;
46653;SDS011;38960;51.074;17.004;2022-10-16T02:17:28;8.05;;;6.07;;
46653;SDS011;38960;51.074;17.004;2022-10-16T02:19:54;9.27;;;6.43;;
46653;SDS011;38960;51.074;17.004;2022-10-16T02:24:58;7.00;;;5.90;;
46653;SDS011;38960;51.074;17.004;2022-10-16T02:32:49;7.47;;;6.35;;
46653;SDS011;38960;51.074;17.004;2022-10-16T02:35:16;7.65;;;6.80;;
46653;SDS011;38960;51.074;17.004;2022-10-16T02:37:43;8.32;;;6.30;;
46653;SDS011;38960;51.074;17.004;2022-10-16T02:40:10;8.80;;;5.85;;
46653;SDS011;38960;51.074;17.004;2022-10-16T02:42:36;10.73;;;6.28;;
46653;SDS011;38960;51.074;17.004;2022-10-16T02:45:03;11.32;;;6.13;;
46653;SDS011;38960;51.074;17.004;2022-10-16T02:47:30;11.55;;;6.50;;
46653;SDS011;38960;51.074;17.004;2022-10-16T02:49:55;8.95;;;6.18;;
46653;SDS011;38960;51.074;17.004;2022-10-16T02:52:21;9.57;;;5.85;;
46653;SDS011;38960;51.074;17.004;2022-10-16T02:54:46;9.05;;;6.18;;
46653;SDS011;38960;51.074;17.004;2022-10-16T02:57:12;9.63;;;6.65;;
46653;SDS011;38960;51.074;17.004;2022-10-16T02:59:38;10.50;;;6.85;;
46653;SDS011;38960;51.074;17.004;2022-10-16T03:02:04;8.52;;;7.32;;
46653;SDS011;38960;51.074;17.004;2022-10-16T03:04:29;10.23;;;7.10;;
46653;SDS011;38960;51.074;17.004;2022-10-16T03:06:55;9.18;;;7.15;;
46653;SDS011;38960;51.074;17.004;2022-10-16T03:09:20;8.00;;;6.30;;
46653;SDS011;38960;51.074;17.004;2022-10-16T03:11:46;9.90;;;6.78;;
46653;SDS011;38960;51.074;17.004;2022-10-16T03:14:12;9.75;;;7.25;;
46653;SDS011;38960;51.074;17.004;2022-10-16T03:16:37;8.98;;;6.78;;
46653;SDS011;38960;51.074;17.004;2022-10-16T03:19:03;7.72;;;6.68;;
46653;SDS011;38960;51.074;17.004;2022-10-16T03:21:28;7.30;;;6.20;;
46653;SDS011;38960;51.074;17.004;2022-10-16T03:23:54;7.38;;;6.15;;
46653;SDS011;38960;51.074;17.004;2022-10-16T03:26:20;9.02;;;7.13;;
46653;SDS011;38960;51.074;17.004;2022-10-16T03:28:45;7.45;;;6.60;;
46653;SDS011;38960;51.074;17.004;2022-10-16T03:31:11;6.97;;;5.93;;
46653;SDS011;38960;51.074;17.004;2022-10-16T03:33:37;6.93;;;6.22;;
46653;SDS011;38960;51.074;17.004;2022-10-16T03:36:02;8.18;;;6.88;;
46653;SDS011;38960;51.074;17.004;2022-10-16T03:38:28;9.30;;;6.95;;
46653;SDS011;38960;51.074;17.004;2022-10-16T03:40:53;8.90;;;7.53;;
46653;SDS011;38960;51.074;17.004;2022-10-16T03:43:19;8.57;;;6.65;;
46653;SDS011;38960;51.074;17.004;2022-10-16T03:45:44;7.20;;;6.22;;
46653;SDS011;38960;51.074;17.004;2022-10-16T03:48:10;8.63;;;6.75;;
46653;SDS011;38960;51.074;17.004;2022-10-16T03:50:36;8.85;;;6.40;;
46653;SDS011;38960;51.074;17.004;2022-10-16T03:53:02;7.65;;;6.63;;
46653;SDS011;38960;51.074;17.004;2022-10-16T03:55:28;9.60;;;7.35;;
46653;SDS011;38960;51.074;17.004;2022-10-16T03:57:54;9.10;;;6.75;;
46653;SDS011;38960;51.074;17.004;2022-10-16T04:00:19;10.30;;;7.43;;
46653;SDS011;38960;51.074;17.004;2022-10-16T04:02:45;9.93;;;7.38;;
46653;SDS011;38960;51.074;17.004;2022-10-16T04:05:10;7.80;;;6.88;;
46653;SDS011;38960;51.074;17.004;2022-10-16T04:07:36;9.85;;;7.10;;
46653;SDS011;38960;51.074;17.004;2022-10-16T04:10:01;8.77;;;7.43;;
46653;SDS011;38960;51.074;17.004;2022-10-16T04:12:27;6.68;;;6.07;;
46653;SDS011;38960;51.074;17.004;2022-10-16T04:14:53;7.95;;;6.47;;
46653;SDS011;38960;51.074;17.004;2022-10-16T04:17:18;7.85;;;6.03;;
46653;SDS011;38960;51.074;17.004;2022-10-16T04:19:44;7.10;;;6.10;;
46653;SDS011;38960;51.074;17.004;2022-10-16T04:22:10;9.48;;;6.55;;
46653;SDS011;38960;51.074;17.004;2022-10-16T04:24:35;11.88;;;7.38;;
46653;SDS011;38960;51.074;17.004;2022-10-16T04:27:01;12.52;;;8.90;;
46653;SDS011;38960;51.074;17.004;2022-10-16T04:29:26;12.10;;;8.00;;
46653;SDS011;38960;51.074;17.004;2022-10-16T04:31:52;10.40;;;8.82;;
46653;SDS011;38960;51.074;17.004;2022-10-16T04:34:18;8.20;;;7.10;;
46653;SDS011;38960;51.074;17.004;2022-10-16T04:36:43;10.32;;;8.32;;
46653;SDS011;38960;51.074;17.004;2022-10-16T04:39:09;10.65;;;8.75;;
46653;SDS011;38960;51.074;17.004;2022-10-16T04:41:34;10.18;;;8.90;;
46653;SDS011;38960;51.074;17.004;2022-10-16T04:44:00;9.20;;;8.30;;
46653;SDS011;38960;51.074;17.004;2022-10-16T04:46:25;8.65;;;7.63;;
46653;SDS011;38960;51.074;17.004;2022-10-16T04:48:51;12.65;;;10.25;;
46653;SDS011;38960;51.074;17.004;2022-10-16T04:51:17;11.80;;;10.60;;
46653;SDS011;38960;51.074;17.004;2022-10-16T04:53:43;11.57;;;10.32;;
46653;SDS011;38960;51.074;17.004;2022-10-16T04:56:09;14.48;;;10.93;;
46653;SDS011;38960;51.074;17.004;2022-10-16T04:58:35;15.32;;;10.98;;
46653;SDS011;38960;51.074;17.004;2022-10-16T05:01:00;13.35;;;11.50;;
46653;SDS011;38960;51.074;17.004;2022-10-16T05:03:26;13.57;;;11.23;;
46653;SDS011;38960;51.074;17.004;2022-10-16T05:05:51;13.68;;;10.25;;
46653;SDS011;38960;51.074;17.004;2022-10-16T05:08:17;13.18;;;10.40;;
46653;SDS011;38960;51.074;17.004;2022-10-16T05:10:42;9.93;;;8.98;;
46653;SDS011;38960;51.074;17.004;2022-10-16T05:13:09;10.52;;;9.13;;
46653;SDS011;38960;51.074;17.004;2022-10-16T05:15:35;9.93;;;8.15;;
46653;SDS011;38960;51.074;17.004;2022-10-16T05:18:00;8.60;;;7.13;;
46653;SDS011;38960;51.074;17.004;2022-10-16T05:20:26;7.85;;;7.05;;
46653;SDS011;38960;51.074;17.004;2022-10-16T05:22:51;7.97;;;7.10;;
46653;SDS011;38960;51.074;17.004;2022-10-16T05:25:17;10.05;;;6.90;;
46653;SDS011;38960;51.074;17.004;2022-10-16T05:27:43;7.40;;;6.55;;
46653;SDS011;38960;51.074;17.004;2022-10-16T05:30:08;8.55;;;6.05;;
46653;SDS011;38960;51.074;17.004;2022-10-16T05:32:34;9.90;;;6.85;;
46653;SDS011;38960;51.074;17.004;2022-10-16T05:35:00;7.53;;;6.25;;
46653;SDS011;38960;51.074;17.004;2022-10-16T05:37:27;13.88;;;6.93;;
46653;SDS011;38960;51.074;17.004;2022-10-16T05:39:53;6.70;;;6.00;;
46653;SDS011;38960;51.074;17.004;2022-10-16T05:42:18;7.18;;;5.90;;
46653;SDS011;38960;51.074;17.004;2022-10-16T05:44:44;6.88;;;5.97;;
46653;SDS011;38960;51.074;17.004;2022-10-16T05:47:09;7.63;;;5.65;;
46653;SDS011;38960;51.074;17.004;2022-10-16T05:49:37;6.95;;;5.68;;
46653;SDS011;38960;51.074;17.004;2022-10-16T05:52:03;9.15;;;5.78;;
46653;SDS011;38960;51.074;17.004;2022-10-16T05:54:29;7.18;;;6.20;;
46653;SDS011;38960;51.074;17.004;2022-10-16T05:56:54;7.00;;;6.22;;
46653;SDS011;38960;51.074;17.004;2022-10-16T05:59:20;8.43;;;6.53;;
46653;SDS011;38960;51.074;17.004;2022-10-16T06:01:45;8.45;;;5.75;;
46653;SDS011;38960;51.074;17.004;2022-10-16T06:04:11;8.05;;;6.40;;
46653;SDS011;38960;51.074;17.004;2022-10-16T06:06:36;7.78;;;6.13;;
46653;SDS011;38960;51.074;17.004;2022-10-16T06:09:02;5.63;;;5.10;;
46653;SDS011;38960;51.074;17.004;2022-10-16T06:11:29;7.95;;;5.50;;
46653;SDS011;38960;51.074;17.004;2022-10-16T06:13:56;7.57;;;5.40;;
46653;SDS011;38960;51.074;17.004;2022-10-16T06:16:23;7.45;;;5.38;;
46653;SDS011;38960;51.074;17.004;2022-10-16T06:18:50;5.97;;;5.38;;
46653;SDS011;38960;51.074;17.004;2022-10-16T06:21:17;9.38;;;5.78;;
46653;SDS011;38960;51.074;17.004;2022-10-16T06:23:43;7.72;;;5.72;;
46653;SDS011;38960;51.074;17.004;2022-10-16T06:26:15;9.18;;;5.95;;
46653;SDS011;38960;51.074;17.004;2022-10-16T06:28:42;7.40;;;5.53;;
46653;SDS011;38960;51.074;17.004;2022-10-16T06:31:08;6.72;;;5.32;;
46653;SDS011;38960;51.074;17.004;2022-10-16T06:33:35;6.25;;;5.55;;
46653;SDS011;38960;51.074;17.004;2022-10-16T06:36:14;8.20;;;5.90;;
46653;SDS011;38960;51.074;17.004;2022-10-16T06:38:41;6.15;;;5.07;;
46653;SDS011;38960;51.074;17.004;2022-10-16T06:41:07;7.55;;;5.07;;
46653;SDS011;38960;51.074;17.004;2022-10-16T06:43:33;5.70;;;5.00;;
46653;SDS011;38960;51.074;17.004;2022-10-16T06:46:02;6.57;;;5.13;;
46653;SDS011;38960;51.074;17.004;2022-10-16T06:48:30;5.85;;;5.05;;
46653;SDS011;38960;51.074;17.004;2022-10-16T06:50:56;5.95;;;4.95;;
46653;SDS011;38960;51.074;17.004;2022-10-16T06:53:27;4.63;;;4.23;;
46653;SDS011;38960;51.074;17.004;2022-10-16T06:55:54;5.40;;;4.88;;
46653;SDS011;38960;51.074;17.004;2022-10-16T06:58:20;7.65;;;4.72;;
46653;SDS011;38960;51.074;17.004;2022-10-16T07:00:46;5.40;;;4.88;;
46653;SDS011;38960;51.074;17.004;2022-10-16T07:03:11;6.93;;;5.03;;
46653;SDS011;38960;51.074;17.004;2022-10-16T07:05:41;7.78;;;4.78;;
46653;SDS011;38960;51.074;17.004;2022-10-16T07:08:07;6.05;;;4.88;;
46653;SDS011;38960;51.074;17.004;2022-10-16T07:10:33;5.70;;;5.03;;
46653;SDS011;38960;51.074;17.004;2022-10-16T07:12:58;7.18;;;4.35;;
46653;SDS011;38960;51.074;17.004;2022-10-16T07:15:24;5.30;;;4.32;;
46653;SDS011;38960;51.074;17.004;2022-10-16T07:17:50;5.20;;;4.70;;
46653;SDS011;38960;51.074;17.004;2022-10-16T07:20:16;5.03;;;4.03;;
46653;SDS011;38960;51.074;17.004;2022-10-16T07:22:41;5.38;;;4.35;;
46653;SDS011;38960;51.074;17.004;2022-10-16T07:25:07;4.00;;;3.53;;
46653;SDS011;38960;51.074;17.004;2022-10-16T07:27:33;6.10;;;3.95;;
46653;SDS011;38960;51.074;17.004;2022-10-16T07:29:59;5.85;;;3.45;;
46653;SDS011;38960;51.074;17.004;2022-10-16T07:32:24;4.22;;;3.83;;
46653;SDS011;38960;51.074;17.004;2022-10-16T07:34:51;4.00;;;3.33;;
46653;SDS011;38960;51.074;17.004;2022-10-16T07:37:17;6.90;;;3.35;;
46653;SDS011;38960;51.074;17.004;2022-10-16T07:39:42;3.45;;;3.00;;
46653;SDS011;38960;51.074;17.004;2022-10-16T07:42:08;5.68;;;3.13;;
46653;SDS011;38960;51.074;17.004;2022-10-16T07:44:33;13.88;;;3.92;;
46653;SDS011;38960;51.074;17.004;2022-10-16T07:46:59;4.47;;;3.33;;
46653;SDS011;38960;51.074;17.004;2022-10-16T07:49:25;4.43;;;3.58;;
46653;SDS011;38960;51.074;17.004;2022-10-16T07:51:50;5.35;;;3.10;;
46653;SDS011;38960;51.074;17.004;2022-10-16T07:54:16;4.00;;;3.00;;
46653;SDS011;38960;51.074;17.004;2022-10-16T07:56:42;8.00;;;3.38;;
46653;SDS011;38960;51.074;17.004;2022-10-16T07:59:07;6.30;;;3.45;;
46653;SDS011;38960;51.074;17.004;2022-10-16T08:01:33;3.30;;;3.00;;
46653;SDS011;38960;51.074;17.004;2022-10-16T08:03:59;3.95;;;3.25;;
46653;SDS011;38960;51.074;17.004;2022-10-16T08:06:24;3.47;;;2.90;;
46653;SDS011;38960;51.074;17.004;2022-10-16T08:08:50;5.38;;;3.00;;
46653;SDS011;38960;51.074;17.004;2022-10-16T08:11:15;3.28;;;2.60;;
46653;SDS011;38960;51.074;17.004;2022-10-16T08:13:41;3.72;;;3.00;;
46653;SDS011;38960;51.074;17.004;2022-10-16T08:16:07;3.42;;;2.75;;
46653;SDS011;38960;51.074;17.004;2022-10-16T08:18:34;3.25;;;2.95;;
46653;SDS011;38960;51.074;17.004;2022-10-16T08:21:02;4.78;;;2.85;;
46653;SDS011;38960;51.074;17.004;2022-10-16T08:23:29;4.40;;;2.50;;
46653;SDS011;38960;51.074;17.004;2022-10-16T08:25:55;3.30;;;2.75;;
46653;SDS011;38960;51.074;17.004;2022-10-16T08:28:22;3.28;;;2.80;;
46653;SDS011;38960;51.074;17.004;2022-10-16T08:30:48;2.50;;;2.30;;
46653;SDS011;38960;51.074;17.004;2022-10-16T08:33:14;3.30;;;2.83;;
46653;SDS011;38960;51.074;17.004;2022-10-16T08:35:39;3.42;;;2.42;;
46653;SDS011;38960;51.074;17.004;2022-10-16T08:38:05;2.83;;;2.50;;
46653;SDS011;38960;51.074;17.004;2022-10-16T08:40:32;3.08;;;2.70;;
46653;SDS011;38960;51.074;17.004;2022-10-16T08:45:35;2.92;;;2.42;;
46653;SDS011;38960;51.074;17.004;2022-10-16T08:48:27;4.43;;;3.42;;
46653;SDS011;38960;51.074;17.004;2022-10-16T08:50:58;6.32;;;3.63;;
46653;SDS011;38960;51.074;17.004;2022-10-16T08:53:30;5.13;;;3.13;;
46653;SDS011;38960;51.074;17.004;2022-10-16T08:55:59;3.00;;;2.70;;
46653;SDS011;38960;51.074;17.004;2022-10-16T08:58:28;6.18;;;2.60;;
46653;SDS011;38960;51.074;17.004;2022-10-16T09:00:56;4.93;;;2.80;;
46653;SDS011;38960;51.074;17.004;2022-10-16T09:08:42;4.90;;;3.10;;
46653;SDS011;38960;51.074;17.004;2022-10-16T09:16:42;8.48;;;3.45;;
46653;SDS011;38960;51.074;17.004;2022-10-16T09:19:13;3.42;;;2.53;;
46653;SDS011;38960;51.074;17.004;2022-10-16T09:21:47;3.10;;;2.60;;
46653;SDS011;38960;51.074;17.004;2022-10-16T09:26:46;3.70;;;2.42;;
46653;SDS011;38960;51.074;17.004;2022-10-16T09:29:19;4.45;;;2.88;;
46653;SDS011;38960;51.074;17.004;2022-10-16T09:31:45;4.60;;;2.45;;
46653;SDS011;38960;51.074;17.004;2022-10-16T09:34:17;2.80;;;2.13;;
46653;SDS011;38960;51.074;17.004;2022-10-16T09:36:52;3.72;;;2.40;;
46653;SDS011;38960;51.074;17.004;2022-10-16T09:39:18;2.45;;;2.20;;
46653;SDS011;38960;51.074;17.004;2022-10-16T09:41:44;3.05;;;2.30;;
46653;SDS011;38960;51.074;17.004;2022-10-16T09:46:43;5.53;;;2.67;;
46653;SDS011;38960;51.074;17.004;2022-10-16T09:51:43;3.53;;;2.10;;
46653;SDS011;38960;51.074;17.004;2022-10-16T09:56:35;3.13;;;2.05;;
46653;SDS011;38960;51.074;17.004;2022-10-16T09:59:08;3.40;;;1.88;;
46653;SDS011;38960;51.074;17.004;2022-10-16T10:01:37;3.00;;;2.03;;
46653;SDS011;38960;51.074;17.004;2022-10-16T10:04:07;4.20;;;2.20;;
46653;SDS011;38960;51.074;17.004;2022-10-16T10:06:34;3.47;;;1.90;;
46653;SDS011;38960;51.074;17.004;2022-10-16T10:12:33;3.00;;;2.00;;
46653;SDS011;38960;51.074;17.004;2022-10-16T10:15:06;2.90;;;1.83;;
46653;SDS011;38960;51.074;17.004;2022-10-16T10:17:33;2.60;;;2.28;;
46653;SDS011;38960;51.074;17.004;2022-10-16T10:20:00;2.20;;;1.95;;
46653;SDS011;38960;51.074;17.004;2022-10-16T10:22:44;2.20;;;1.60;;
46653;SDS011;38960;51.074;17.004;2022-10-16T10:44:01;6.10;;;1.67;;
46653;SDS011;38960;51.074;17.004;2022-10-16T10:46:35;1.65;;;1.55;;
46653;SDS011;38960;51.074;17.004;2022-10-16T10:54:28;2.33;;;1.50;;
46653;SDS011;38960;51.074;17.004;2022-10-16T10:57:02;2.63;;;1.92;;
46653;SDS011;38960;51.074;17.004;2022-10-16T11:02:41;1.60;;;1.40;;
46653;SDS011;38960;51.074;17.004;2022-10-16T11:05:31;1.90;;;1.70;;
46653;SDS011;38960;51.074;17.004;2022-10-16T11:08:02;2.50;;;2.00;;
46653;SDS011;38960;51.074;17.004;2022-10-16T11:10:42;3.40;;;1.52;;
46653;SDS011;38960;51.074;17.004;2022-10-16T11:15:57;2.58;;;1.63;;
46653;SDS011;38960;51.074;17.004;2022-10-16T11:18:27;4.30;;;1.70;;
46653;SDS011;38960;51.074;17.004;2022-10-16T11:21:05;1.40;;;1.30;;
46653;SDS011;38960;51.074;17.004;2022-10-16T11:26:33;2.67;;;1.63;;
46653;SDS011;38960;51.074;17.004;2022-10-16T11:29:00;2.50;;;1.75;;
46653;SDS011;38960;51.074;17.004;2022-10-16T11:31:38;3.22;;;1.90;;
46653;SDS011;38960;51.074;17.004;2022-10-16T11:34:17;2.17;;;1.70;;
46653;SDS011;38960;51.074;17.004;2022-10-16T11:39:28;1.88;;;1.50;;
46653;SDS011;38960;51.074;17.004;2022-10-16T11:50:19;4.72;;;2.25;;
46653;SDS011;38960;51.074;17.004;2022-10-16T11:55:42;3.10;;;2.55;;
46653;SDS011;38960;51.074;17.004;2022-10-16T12:09:29;2.63;;;2.17;;
46653;SDS011;38960;51.074;17.004;2022-10-16T12:11:57;2.47;;;2.22;;
46653;SDS011;38960;51.074;17.004;2022-10-16T12:17:01;4.43;;;2.45;;
46653;SDS011;38960;51.074;17.004;2022-10-16T12:19:56;2.90;;;2.60;;
46653;SDS011;38960;51.074;17.004;2022-10-16T12:22:27;4.33;;;2.80;;
46653;SDS011;38960;51.074;17.004;2022-10-16T12:24:55;3.13;;;2.83;;
46653;SDS011;38960;51.074;17.004;2022-10-16T12:27:25;6.05;;;3.10;;
46653;SDS011;38960;51.074;17.004;2022-10-16T12:30:00;7.95;;;3.92;;
46653;SDS011;38960;51.074;17.004;2022-10-16T12:35:01;4.10;;;3.47;;
46653;SDS011;38960;51.074;17.004;2022-10-16T12:37:31;6.82;;;3.88;;
46653;SDS011;38960;51.074;17.004;2022-10-16T12:39:59;4.30;;;3.70;;
46653;SDS011;38960;51.074;17.004;2022-10-16T12:44:53;6.68;;;4.05;;
46653;SDS011;38960;51.074;17.004;2022-10-16T12:47:23;4.65;;;4.25;;
46653;SDS011;38960;51.074;17.004;2022-10-16T12:49:53;6.13;;;4.80;;
46653;SDS011;38960;51.074;17.004;2022-10-16T12:52:35;7.25;;;4.50;;
46653;SDS011;38960;51.074;17.004;2022-10-16T12:55:04;6.75;;;4.78;;
46653;SDS011;38960;51.074;17.004;2022-10-16T13:00:27;10.25;;;4.80;;
46653;SDS011;38960;51.074;17.004;2022-10-16T13:28:13;6.85;;;4.40;;
46653;SDS011;38960;51.074;17.004;2022-10-16T13:30:40;6.55;;;4.60;;
46653;SDS011;38960;51.074;17.004;2022-10-16T13:33:10;8.50;;;5.18;;
46653;SDS011;38960;51.074;17.004;2022-10-16T13:35:47;6.40;;;4.80;;
46653;SDS011;38960;51.074;17.004;2022-10-16T13:38:15;4.88;;;4.20;;
46653;SDS011;38960;51.074;17.004;2022-10-16T13:43:26;3.58;;;2.95;;
46653;SDS011;38960;51.074;17.004;2022-10-16T13:45:54;3.40;;;3.10;;
46653;SDS011;38960;51.074;17.004;2022-10-16T13:48:22;4.07;;;3.10;;
46653;SDS011;38960;51.074;17.004;2022-10-16T13:50:58;4.15;;;2.78;;
46653;SDS011;38960;51.074;17.004;2022-10-16T13:53:24;4.28;;;3.00;;
46653;SDS011;38960;51.074;17.004;2022-10-16T13:55:50;3.50;;;2.70;;
46653;SDS011;38960;51.074;17.004;2022-10-16T13:58:15;5.00;;;3.20;;
46653;SDS011;38960;51.074;17.004;2022-10-16T14:00:52;4.68;;;3.00;;
46653;SDS011;38960;51.074;17.004;2022-10-16T14:03:22;3.35;;;2.90;;
46653;SDS011;38960;51.074;17.004;2022-10-16T14:05:52;3.15;;;2.78;;
46653;SDS011;38960;51.074;17.004;2022-10-16T14:08:21;3.20;;;2.75;;
46653;SDS011;38960;51.074;17.004;2022-10-16T14:10:49;7.18;;;2.78;;
46653;SDS011;38960;51.074;17.004;2022-10-16T14:13:19;2.70;;;2.50;;
46653;SDS011;38960;51.074;17.004;2022-10-16T14:15:51;3.78;;;3.08;;
46653;SDS011;38960;51.074;17.004;2022-10-16T14:18:18;5.40;;;2.95;;
46653;SDS011;38960;51.074;17.004;2022-10-16T14:20:48;4.82;;;2.90;;
46653;SDS011;38960;51.074;17.004;2022-10-16T14:23:19;2.83;;;2.45;;
46653;SDS011;38960;51.074;17.004;2022-10-16T14:25:47;3.65;;;2.85;;
46653;SDS011;38960;51.074;17.004;2022-10-16T14:28:22;5.65;;;2.85;;
46653;SDS011;38960;51.074;17.004;2022-10-16T14:30:50;4.35;;;3.35;;
46653;SDS011;38960;51.074;17.004;2022-10-16T14:38:53;3.17;;;2.60;;
46653;SDS011;38960;51.074;17.004;2022-10-16T14:41:23;3.03;;;2.65;;
46653;SDS011;38960;51.074;17.004;2022-10-16T14:43:56;5.18;;;2.85;;
46653;SDS011;38960;51.074;17.004;2022-10-16T14:46:35;3.85;;;2.88;;
46653;SDS011;38960;51.074;17.004;2022-10-16T14:49:03;3.83;;;3.30;;
46653;SDS011;38960;51.074;17.004;2022-10-16T14:51:39;8.05;;;3.25;;
46653;SDS011;38960;51.074;17.004;2022-10-16T14:54:10;5.40;;;2.75;;
46653;SDS011;38960;51.074;17.004;2022-10-16T14:59:16;3.53;;;2.97;;
46653;SDS011;38960;51.074;17.004;2022-10-16T15:01:49;4.18;;;3.08;;
46653;SDS011;38960;51.074;17.004;2022-10-16T15:04:14;4.35;;;3.08;;
46653;SDS011;38960;51.074;17.004;2022-10-16T15:06:41;5.88;;;2.83;;
46653;SDS011;38960;51.074;17.004;2022-10-16T15:09:08;5.63;;;3.58;;
46653;SDS011;38960;51.074;17.004;2022-10-16T15:11:34;6.22;;;3.70;;
46653;SDS011;38960;51.074;17.004;2022-10-16T15:14:00;3.83;;;3.13;;
46653;SDS011;38960;51.074;17.004;2022-10-16T15:16:25;5.55;;;3.45;;
46653;SDS011;38960;51.074;17.004;2022-10-16T15:18:51;4.13;;;3.58;;
46653;SDS011;38960;51.074;17.004;2022-10-16T15:21:25;7.97;;;4.10;;
46653;SDS011;38960;51.074;17.004;2022-10-16T15:23:52;4.85;;;3.60;;
46653;SDS011;38960;51.074;17.004;2022-10-16T15:26:18;5.28;;;3.92;;
46653;SDS011;38960;51.074;17.004;2022-10-16T15:28:43;4.95;;;3.78;;
46653;SDS011;38960;51.074;17.004;2022-10-16T15:31:09;5.05;;;4.32;;
46653;SDS011;38960;51.074;17.004;2022-10-16T15:33:35;6.30;;;3.78;;
46653;SDS011;38960;51.074;17.004;2022-10-16T15:36:01;5.60;;;4.38;;
46653;SDS011;38960;51.074;17.004;2022-10-16T15:38:27;7.70;;;4.22;;
46653;SDS011;38960;51.074;17.004;2022-10-16T15:40:53;6.07;;;4.05;;
46653;SDS011;38960;51.074;17.004;2022-10-16T15:43:19;4.40;;;3.97;;
46653;SDS011;38960;51.074;17.004;2022-10-16T15:46:05;7.13;;;4.40;;
46653;SDS011;38960;51.074;17.004;2022-10-16T15:48:32;6.45;;;4.30;;
46653;SDS011;38960;51.074;17.004;2022-10-16T15:50:58;4.40;;;4.00;;
46653;SDS011;38960;51.074;17.004;2022-10-16T15:53:24;6.40;;;4.22;;
46653;SDS011;38960;51.074;17.004;2022-10-16T15:55:50;7.20;;;4.60;;
46653;SDS011;38960;51.074;17.004;2022-10-16T15:58:16;5.88;;;4.25;;
46653;SDS011;38960;51.074;17.004;2022-10-16T16:00:42;5.53;;;4.40;;
46653;SDS011;38960;51.074;17.004;2022-10-16T16:03:08;6.72;;;4.35;;
46653;SDS011;38960;51.074;17.004;2022-10-16T16:05:36;6.10;;;4.63;;
46653;SDS011;38960;51.074;17.004;2022-10-16T16:08:03;6.47;;;5.07;;
46653;SDS011;38960;51.074;17.004;2022-10-16T16:10:28;9.45;;;5.45;;
46653;SDS011;38960;51.074;17.004;2022-10-16T16:12:54;6.65;;;5.18;;
46653;SDS011;38960;51.074;17.004;2022-10-16T16:15:20;5.95;;;4.90;;
46653;SDS011;38960;51.074;17.004;2022-10-16T16:17:46;9.77;;;5.65;;
46653;SDS011;38960;51.074;17.004;2022-10-16T16:20:12;6.70;;;6.00;;
46653;SDS011;38960;51.074;17.004;2022-10-16T16:22:37;8.57;;;5.93;;
46653;SDS011;38960;51.074;17.004;2022-10-16T16:25:03;9.95;;;6.50;;
46653;SDS011;38960;51.074;17.004;2022-10-16T16:27:29;7.70;;;6.50;;
46653;SDS011;38960;51.074;17.004;2022-10-16T16:29:58;9.75;;;6.30;;
46653;SDS011;38960;51.074;17.004;2022-10-16T16:32:24;12.27;;;7.25;;
46653;SDS011;38960;51.074;17.004;2022-10-16T16:34:50;11.05;;;7.50;;
46653;SDS011;38960;51.074;17.004;2022-10-16T16:37:15;9.43;;;7.03;;
46653;SDS011;38960;51.074;17.004;2022-10-16T16:39:41;6.85;;;5.93;;
46653;SDS011;38960;51.074;17.004;2022-10-16T16:42:07;10.88;;;7.32;;
46653;SDS011;38960;51.074;17.004;2022-10-16T16:44:33;9.45;;;8.35;;
46653;SDS011;38960;51.074;17.004;2022-10-16T16:47:01;12.40;;;8.70;;
46653;SDS011;38960;51.074;17.004;2022-10-16T16:49:30;12.07;;;9.27;;
46653;SDS011;38960;51.074;17.004;2022-10-16T16:51:56;11.82;;;9.25;;
46653;SDS011;38960;51.074;17.004;2022-10-16T16:54:21;11.05;;;8.93;;
46653;SDS011;38960;51.074;17.004;2022-10-16T16:56:47;13.40;;;9.35;;
46653;SDS011;38960;51.074;17.004;2022-10-16T16:59:14;9.80;;;8.73;;
46653;SDS011;38960;51.074;17.004;2022-10-16T17:01:41;11.27;;;9.40;;
46653;SDS011;38960;51.074;17.004;2022-10-16T17:04:07;10.57;;;9.55;;